Time;durP1;ratioP1;P1;durP2;ratioP2;P2;SDS_P1;SDS_P2;PMS_P1;PMS_P2;Temp;Humidity;BMP_temperature;BMP_pressure;BME280_temperature;BME280_humidity;BME280_pressure;Samples;Min_cycle;Max_cycle;Signal;HPM_P1;HPM_P2
2023/04/29 00:00:00;;;;;;;;;;;;;;;;;;5051296;28;4450;-61
2023/04/29 00:02:25;;;;;;;;;;;;;;;;;;5049707;28;4627;-61
2023/04/29 00:04:51;;;;;;;;;;;;;;;;;;5051387;28;5572;-60
2023/04/29 00:07:16;;;;;;;;;;;;;;;;;;5050798;28;4510;-61
2023/04/29 00:09:42;;;;;;;;;;;;;;;;;;5048041;28;6734;-61
2023/04/29 00:12:08;;;;;;;;;;;;;;;;;;5051349;28;1141;-61
2023/04/29 00:14:34;;;;;;;;;;;;;;;;;;5049520;28;5028;-60
2023/04/29 00:16:59;;;;;;;;;;;;;;;;;;5050942;28;4811;-61
2023/04/29 00:19:24;;;;;;;;;;;;;;;;;;5050958;28;4627;-60
2023/04/29 00:21:50;;;;;;;;;;;;;;;;;;5051153;28;5008;-61
2023/04/29 00:24:16;;;;;;;;;;;;;;;;;;5049971;28;1120;-61
2023/04/29 00:26:41;;;;;;;;;;;;;;;;;;5050538;28;4663;-61
2023/04/29 00:29:06;;;;;;;;;;;;;;;;;;5050727;28;4616;-61
2023/04/29 00:31:32;;;;;;;;;;;;;;;;;;5049913;28;4470;-61
2023/04/29 00:33:57;;;;;;;;;;;;;;;;;;5050848;28;4487;-61
2023/04/29 00:36:22;;;;;;;;;;;;;;;;;;5049095;28;1161;-61
2023/04/29 00:38:47;;;;;;;;;;;;;;;;;;5050347;28;4987;-61
2023/04/29 00:41:13;;;;;;;;;;;;;;;;;;5050334;28;4468;-62
2023/04/29 00:43:38;;;;;;;;;;;;;;;;;;5050720;28;4682;-61
2023/04/29 00:46:03;;;;;;;;;;;;;;;;;;5050659;28;5122;-61
2023/04/29 00:48:29;;;;;;;;;;;;;;;;;;5051203;28;1112;-61
2023/04/29 00:50:55;;;;;;;;;;;;;;;;;;5050326;28;4425;-61
2023/04/29 00:53:21;;;;;;;;;;;;;;;;;;5050410;28;4448;-61
2023/04/29 00:55:47;;;;;;;;;;;;;;;;;;5049716;28;5297;-61
2023/04/29 00:58:13;;;;;;;;;;;;;;;;;;5048803;28;4493;-62
2023/04/29 01:00:38;;;;;;;;;;;;;;;;;;5050267;28;4970;-61
2023/04/29 01:03:06;;;;;;;;;;;;;;;;;;5048545;28;1938;-61
2023/04/29 01:05:32;;;;;;;;;;;;;;;;;;5050335;28;4996;-61
2023/04/29 01:08:02;;;;;;;;;;;;;;;;;;5048836;28;4657;-61
2023/04/29 01:10:28;;;;;;;;;;;;;;;;;;5044786;28;6777;-62
2023/04/29 01:13:06;;;;;;;;;;;;;;;;;;5046993;28;5004;-61
2023/04/29 01:15:31;;;;;;;;;;;;;;;;;;5050485;28;1036;-61
2023/04/29 01:18:03;;;;;;;;;;;;;;;;;;5048802;28;4558;-61
2023/04/29 01:20:28;;;;;;;;;;;;;;;;;;5042088;28;4611;-62
2023/04/29 01:22:53;;;;;;;;;;;;;;;;;;5048772;28;4460;-60
2023/04/29 01:25:19;;;;;;;;;;;;;;;;;;5049647;28;5008;-60
2023/04/29 01:27:53;;;;;;;;;;;;;;;;;;5049900;28;4904;-60
2023/04/29 01:30:21;;;;;;;;;;;;;;;;;;5049875;28;1077;-60
2023/04/29 01:32:57;;;;;;;;;;;;;;;;;;5049340;28;4592;-62
2023/04/29 01:35:22;;;;;;;;;;;;;;;;;;5048049;28;4466;-61
2023/04/29 01:37:48;;;;;;;;;;;;;;;;;;5049497;28;4440;-59
2023/04/29 01:40:33;;;;;;;;;;;;;;;;;;5048007;28;4507;-62
2023/04/29 01:43:02;;;;;;;;;;;;;;;;;;5048101;28;4754;-59
2023/04/29 01:45:30;;;;;;;;;;;;;;;;;;5050162;28;1101;-60
2023/04/29 01:47:55;;;;;;;;;;;;;;;;;;5047224;28;4422;-60
2023/04/29 01:50:21;;;;;;;;;;;;;;;;;;5045810;28;5035;-61
2023/04/29 01:52:46;;;;;;;;;;;;;;;;;;5047924;28;4508;-61
2023/04/29 01:55:11;;;;;;;;;;;;;;;;;;5049259;28;4661;-60
2023/04/29 01:57:36;;;;;;;;;;;;;;;;;;5049223;28;4921;-61
2023/04/29 02:00:03;;;;;;;;;;;;;;;;;;5049368;28;1128;-60
2023/04/29 02:02:28;;;;;;;;;;;;;;;;;;5045064;28;5116;-61
2023/04/29 02:04:54;;;;;;;;;;;;;;;;;;5048832;28;4483;-60
2023/04/29 02:07:20;;;;;;;;;;;;;;;;;;5049095;28;4947;-61
2023/04/29 02:09:45;;;;;;;;;;;;;;;;;;5040228;28;6359;-60
2023/04/29 02:12:10;;;;;;;;;;;;;;;;;;5049517;28;1184;-60
2023/04/29 02:14:36;;;;;;;;;;;;;;;;;;5048656;28;4462;-60
2023/04/29 02:17:01;;;;;;;;;;;;;;;;;;5048981;28;4610;-60
2023/04/29 02:19:26;;;;;;;;;;;;;;;;;;5048660;28;4632;-60
2023/04/29 02:21:51;;;;;;;;;;;;;;;;;;5048685;28;4711;-62
2023/04/29 02:24:17;;;;;;;;;;;;;;;;;;5049399;28;1163;-61
2023/04/29 02:26:42;;;;;;;;;;;;;;;;;;5049058;28;5203;-60
2023/04/29 02:29:07;;;;;;;;;;;;;;;;;;5048669;28;4736;-60
2023/04/29 02:31:32;;;;;;;;;;;;;;;;;;5048105;28;4513;-59
2023/04/29 02:33:59;;;;;;;;;;;;;;;;;;5047096;28;4542;-60
2023/04/29 02:36:25;;;;;;;;;;;;;;;;;;5049202;28;1120;-60
2023/04/29 02:38:52;;;;;;;;;;;;;;;;;;5048336;28;4595;-60
2023/04/29 02:41:18;;;;;;;;;;;;;;;;;;5048253;28;5029;-59
2023/04/29 02:43:43;;;;;;;;;;;;;;;;;;5048643;28;4778;-59
2023/04/29 02:46:09;;;;;;;;;;;;;;;;;;5047218;28;4624;-61
2023/04/29 02:48:34;;;;;;;;;;;;;;;;;;5048719;28;1258;-60
2023/04/29 02:50:59;;;;;;;;;;;;;;;;;;5048320;28;4445;-61
2023/04/29 02:53:24;;;;;;;;;;;;;;;;;;5048169;28;4929;-61
2023/04/29 02:55:50;;;;;;;;;;;;;;;;;;5046841;28;4706;-61
2023/04/29 02:58:15;;;;;;;;;;;;;;;;;;5048223;28;4511;-61
2023/04/29 03:00:41;;;;;;;;;;;;;;;;;;5047828;28;4637;-61
2023/04/29 03:03:06;;;;;;;;;;;;;;;;;;5044818;28;1914;-60
2023/04/29 03:05:31;;;;;;;;;;;;;;;;;;5047976;28;4645;-60
2023/04/29 03:07:57;;;;;;;;;;;;;;;;;;5048149;28;4476;-60
2023/04/29 03:10:22;;;;;;;;;;;;;;;;;;5039446;28;6728;-60
2023/04/29 03:12:47;;;;;;;;;;;;;;;;;;5046283;28;5000;-61
2023/04/29 03:15:13;;;;;;;;;;;;;;;;;;5048904;28;1105;-60
2023/04/29 03:17:38;;;;;;;;;;;;;;;;;;5047908;28;4592;-60
2023/04/29 03:20:03;;;;;;;;;;;;;;;;;;5048131;28;4939;-60
2023/04/29 03:22:29;;;;;;;;;;;;;;;;;;5047858;28;4850;-60
2023/04/29 03:24:54;;;;;;;;;;;;;;;;;;5047886;28;4909;-60
2023/04/29 03:27:19;;;;;;;;;;;;;;;;;;5048596;28;1175;-60
2023/04/29 03:29:45;;;;;;;;;;;;;;;;;;5047761;28;4932;-61
2023/04/29 03:32:10;;;;;;;;;;;;;;;;;;5047278;28;4708;-61
2023/04/29 03:34:35;;;;;;;;;;;;;;;;;;5047831;28;5118;-61
2023/04/29 03:37:01;;;;;;;;;;;;;;;;;;5048263;28;4692;-61
2023/04/29 03:39:31;;;;;;;;;;;;;;;;;;5047717;28;1109;-61
2023/04/29 03:41:56;;;;;;;;;;;;;;;;;;5047562;28;4638;-60
2023/04/29 03:44:21;;;;;;;;;;;;;;;;;;5045139;28;5433;-60
2023/04/29 03:46:46;;;;;;;;;;;;;;;;;;5047621;28;4536;-61
2023/04/29 03:49:12;;;;;;;;;;;;;;;;;;5047961;28;5047;-61
2023/04/29 03:51:37;;;;;;;;;;;;;;;;;;5047610;28;5028;-62
2023/04/29 03:54:03;;;;;;;;;;;;;;;;;;5046585;28;1157;-61
2023/04/29 03:56:28;;;;;;;;;;;;;;;;;;5047643;28;4826;-61
2023/04/29 03:58:53;;;;;;;;;;;;;;;;;;5047342;28;5180;-60
2023/04/29 04:01:19;;;;;;;;;;;;;;;;;;5038300;28;4990;-61
2023/04/29 04:03:44;;;;;;;;;;;;;;;;;;5040843;28;5169;-63
2023/04/29 04:06:09;;;;;;;;;;;;;;;;;;5042722;28;2149;-60
2023/04/29 04:08:35;;;;;;;;;;;;;;;;;;5043626;28;6470;-61
2023/04/29 04:11:02;;;;;;;;;;;;;;;;;;5044630;28;4482;-61
2023/04/29 04:13:30;;;;;;;;;;;;;;;;;;5050392;28;4509;-61
2023/04/29 04:15:55;;;;;;;;;;;;;;;;;;5050020;28;4520;-60
2023/04/29 04:18:20;;;;;;;;;;;;;;;;;;5051017;28;1600;-60
2023/04/29 04:20:46;;;;;;;;;;;;;;;;;;5051111;28;4406;-59
2023/04/29 04:23:11;;;;;;;;;;;;;;;;;;5050153;28;5072;-60
2023/04/29 04:25:37;;;;;;;;;;;;;;;;;;5048981;28;4774;-61
2023/04/29 04:28:02;;;;;;;;;;;;;;;;;;5049774;28;4804;-61
2023/04/29 04:30:27;;;;;;;;;;;;;;;;;;5050028;28;1189;-62
2023/04/29 04:32:53;;;;;;;;;;;;;;;;;;5047956;28;5148;-62
2023/04/29 04:35:18;;;;;;;;;;;;;;;;;;5045970;28;4981;-61
2023/04/29 04:37:43;;;;;;;;;;;;;;;;;;5049308;28;5151;-60
2023/04/29 04:40:10;;;;;;;;;;;;;;;;;;5042980;28;4516;-62
2023/04/29 04:42:35;;;;;;;;;;;;;;;;;;5051308;28;1977;-60
2023/04/29 04:45:00;;;;;;;;;;;;;;;;;;5050600;28;5378;-60
2023/04/29 04:47:26;;;;;;;;;;;;;;;;;;5049762;28;4612;-60
2023/04/29 04:49:54;;;;;;;;;;;;;;;;;;5050749;28;4665;-60
2023/04/29 04:52:20;;;;;;;;;;;;;;;;;;5049667;28;4527;-61
2023/04/29 04:54:45;;;;;;;;;;;;;;;;;;5050092;28;4880;-60
2023/04/29 04:57:10;;;;;;;;;;;;;;;;;;5051102;28;1211;-60
2023/04/29 04:59:36;;;;;;;;;;;;;;;;;;5048520;28;4411;-61
2023/04/29 05:02:01;;;;;;;;;;;;;;;;;;5045200;28;4982;-60
2023/04/29 05:04:26;;;;;;;;;;;;;;;;;;5050580;28;4539;-60
2023/04/29 05:06:51;;;;;;;;;;;;;;;;;;5050401;28;5066;-60
2023/04/29 05:09:17;;;;;;;;;;;;;;;;;;5047331;28;6209;-60
2023/04/29 05:11:42;;;;;;;;;;;;;;;;;;5050342;28;4592;-60
2023/04/29 05:14:07;;;;;;;;;;;;;;;;;;5049739;28;5039;-60
2023/04/29 05:16:32;;;;;;;;;;;;;;;;;;5046270;28;4847;-60
2023/04/29 05:18:58;;;;;;;;;;;;;;;;;;5049523;28;4566;-60
2023/04/29 05:21:23;;;;;;;;;;;;;;;;;;5050737;28;1164;-60
2023/04/29 05:23:48;;;;;;;;;;;;;;;;;;5048642;28;4417;-62
2023/04/29 05:26:14;;;;;;;;;;;;;;;;;;5048960;28;4448;-61
2023/04/29 05:28:39;;;;;;;;;;;;;;;;;;5050191;28;4437;-61
2023/04/29 05:31:05;;;;;;;;;;;;;;;;;;5049893;28;5000;-61
2023/04/29 05:33:30;;;;;;;;;;;;;;;;;;5048804;28;1910;-61
2023/04/29 05:35:55;;;;;;;;;;;;;;;;;;5048713;28;4500;-61
2023/04/29 05:38:20;;;;;;;;;;;;;;;;;;5049094;28;5259;-62
2023/04/29 05:40:48;;;;;;;;;;;;;;;;;;5040597;28;5228;-61
2023/04/29 05:43:14;;;;;;;;;;;;;;;;;;5045875;28;4551;-62
2023/04/29 05:45:39;;;;;;;;;;;;;;;;;;5049311;28;4852;-61
2023/04/29 05:48:05;;;;;;;;;;;;;;;;;;5050235;28;1191;-63
2023/04/29 05:50:30;;;;;;;;;;;;;;;;;;5049492;28;4497;-63
2023/04/29 05:52:55;;;;;;;;;;;;;;;;;;5048409;28;4438;-62
2023/04/29 05:55:21;;;;;;;;;;;;;;;;;;5047491;28;4521;-62
2023/04/29 05:57:46;;;;;;;;;;;;;;;;;;5046749;28;4976;-62
2023/04/29 06:00:12;;;;;;;;;;;;;;;;;;5048597;28;1501;-62
2023/04/29 06:02:38;;;;;;;;;;;;;;;;;;5042923;28;4530;-62
2023/04/29 06:05:04;;;;;;;;;;;;;;;;;;5049343;28;4437;-61
2023/04/29 06:07:29;;;;;;;;;;;;;;;;;;5049285;28;4783;-61
2023/04/29 06:09:54;;;;;;;;;;;;;;;;;;5038147;28;6367;-63
2023/04/29 06:12:20;;;;;;;;;;;;;;;;;;5039218;28;1674;-64
2023/04/29 06:14:45;;;;;;;;;;;;;;;;;;5049034;28;4472;-62
2023/04/29 06:17:11;;;;;;;;;;;;;;;;;;5048949;28;5053;-63
2023/04/29 06:19:37;;;;;;;;;;;;;;;;;;5048047;28;5081;-61
2023/04/29 06:22:02;;;;;;;;;;;;;;;;;;5046861;28;5079;-63
2023/04/29 06:24:27;;;;;;;;;;;;;;;;;;5047417;28;1706;-62
2023/04/29 06:26:53;;;;;;;;;;;;;;;;;;5045126;28;4885;-60
2023/04/29 06:29:18;;;;;;;;;;;;;;;;;;5048820;28;5120;-61
2023/04/29 06:31:43;;;;;;;;;;;;;;;;;;5047022;28;4650;-60
2023/04/29 06:34:08;;;;;;;;;;;;;;;;;;5048150;28;4643;-61
2023/04/29 06:36:34;;;;;;;;;;;;;;;;;;5049289;28;1147;-61
2023/04/29 06:38:59;;;;;;;;;;;;;;;;;;5048430;28;4992;-61
2023/04/29 06:41:26;;;;;;;;;;;;;;;;;;5048198;28;4701;-62
2023/04/29 06:43:51;;;;;;;;;;;;;;;;;;5048443;28;5066;-61
2023/04/29 06:46:16;;;;;;;;;;;;;;;;;;5048082;28;4999;-62
2023/04/29 06:48:41;;;;;;;;;;;;;;;;;;5048707;28;4965;-60
2023/04/29 06:51:07;;;;;;;;;;;;;;;;;;5046078;28;1704;-62
2023/04/29 06:53:32;;;;;;;;;;;;;;;;;;5050963;28;5100;-62
2023/04/29 06:55:57;;;;;;;;;;;;;;;;;;5045802;28;4550;-61
2023/04/29 06:58:23;;;;;;;;;;;;;;;;;;5044706;28;5074;-62
2023/04/29 07:00:48;;;;;;;;;;;;;;;;;;5045401;28;4593;-61
2023/04/29 07:03:13;;;;;;;;;;;;;;;;;;5040610;28;1929;-61
2023/04/29 07:05:40;;;;;;;;;;;;;;;;;;5044451;28;4604;-61
2023/04/29 07:08:05;;;;;;;;;;;;;;;;;;5047161;28;5140;-60
2023/04/29 07:10:31;;;;;;;;;;;;;;;;;;5035714;28;6453;-60
2023/04/29 07:12:56;;;;;;;;;;;;;;;;;;5046258;28;4704;-61
2023/04/29 07:15:21;;;;;;;;;;;;;;;;;;5047736;28;1749;-62
2023/04/29 07:17:47;;;;;;;;;;;;;;;;;;5046431;28;5021;-62
2023/04/29 07:20:12;;;;;;;;;;;;;;;;;;5048097;28;5308;-62
2023/04/29 07:22:38;;;;;;;;;;;;;;;;;;5045427;28;4622;-62
2023/04/29 07:25:03;;;;;;;;;;;;;;;;;;5045566;28;4488;-62
2023/04/29 07:27:28;;;;;;;;;;;;;;;;;;5047350;28;1057;-61
2023/04/29 07:29:54;;;;;;;;;;;;;;;;;;5047737;28;4667;-63
2023/04/29 07:32:19;;;;;;;;;;;;;;;;;;5046661;28;4507;-65
2023/04/29 07:34:44;;;;;;;;;;;;;;;;;;5047644;28;5002;-66
2023/04/29 07:37:10;;;;;;;;;;;;;;;;;;5042623;28;4693;-60
2023/04/29 07:39:35;;;;;;;;;;;;;;;;;;5047847;28;1124;-61
2023/04/29 07:42:02;;;;;;;;;;;;;;;;;;5046960;28;4579;-60
2023/04/29 07:44:27;;;;;;;;;;;;;;;;;;5047573;28;4477;-60
2023/04/29 07:46:52;;;;;;;;;;;;;;;;;;5046319;28;5079;-62
2023/04/29 07:49:17;;;;;;;;;;;;;;;;;;5051292;28;5522;-62
2023/04/29 07:51:43;;;;;;;;;;;;;;;;;;5046305;28;4766;-60
2023/04/29 07:54:08;;;;;;;;;;;;;;;;;;5047148;28;1837;-61
2023/04/29 07:56:33;;;;;;;;;;;;;;;;;;5045048;28;4707;-61
2023/04/29 07:58:59;;;;;;;;;;;;;;;;;;5047456;28;4509;-65
2023/04/29 08:01:25;;;;;;;;;;;;;;;;;;5049722;28;4556;-60
2023/04/29 08:03:51;;;;;;;;;;;;;;;;;;5047407;28;4721;-61
2023/04/29 08:06:19;;;;;;;;;;;;;;;;;;5046118;28;1890;-62
2023/04/29 08:08:44;;;;;;;;;;;;;;;;;;5043340;28;6497;-64
2023/04/29 08:11:14;;;;;;;;;;;;;;;;;;5048431;28;4543;-66
2023/04/29 08:13:39;;;;;;;;;;;;;;;;;;5048383;28;4464;-62
2023/04/29 08:16:05;;;;;;;;;;;;;;;;;;5051058;28;5112;-64
2023/04/29 08:18:30;;;;;;;;;;;;;;;;;;5051001;28;1175;-62
2023/04/29 08:20:55;;;;;;;;;;;;;;;;;;5050677;28;4680;-61
2023/04/29 08:23:21;;;;;;;;;;;;;;;;;;5050121;28;4571;-61
2023/04/29 08:25:46;;;;;;;;;;;;;;;;;;5048183;28;4494;-61
2023/04/29 08:28:11;;;;;;;;;;;;;;;;;;5053360;28;4516;-58
2023/04/29 08:30:38;;;;;;;;;;;;;;;;;;5044160;28;4516;-53
2023/04/29 08:33:03;;;;;;;;;;;;;;;;;;5048027;28;1884;-59
2023/04/29 08:35:29;;;;;;;;;;;;;;;;;;5050865;28;4480;-65
2023/04/29 08:37:54;;;;;;;;;;;;;;;;;;5047605;28;5092;-59
2023/04/29 08:40:19;;;;;;;;;;;;;;;;;;5048975;28;4677;-61
2023/04/29 08:42:44;;;;;;;;;;;;;;;;;;5044578;28;5076;-63
2023/04/29 08:45:10;;;;;;;;;;;;;;;;;;5043282;28;1828;-62
2023/04/29 08:47:35;;;;;;;;;;;;;;;;;;5044078;28;4669;-64
2023/04/29 08:50:04;;;;;;;;;;;;;;;;;;5036214;28;4662;-62
2023/04/29 08:52:32;;;;;;;;;;;;;;;;;;5047058;28;4545;-63
2023/04/29 08:54:58;;;;;;;;;;;;;;;;;;5044021;28;4683;-62
2023/04/29 08:57:26;;;;;;;;;;;;;;;;;;5047537;28;1856;-61
2023/04/29 08:59:51;;;;;;;;;;;;;;;;;;5048263;28;4783;-62
2023/04/29 09:02:17;;;;;;;;;;;;;;;;;;5041381;28;4502;-61
2023/04/29 09:04:51;;;;;;;;;;;;;;;;;;5045349;28;5119;-60
2023/04/29 09:07:17;;;;;;;;;;;;;;;;;;5046856;28;4777;-60
2023/04/29 09:09:42;;;;;;;;;;;;;;;;;;5042561;28;6505;-60
2023/04/29 09:12:08;;;;;;;;;;;;;;;;;;5044936;28;1834;-67
2023/04/29 09:14:33;;;;;;;;;;;;;;;;;;5057348;28;4569;-60
2023/04/29 09:16:59;;;;;;;;;;;;;;;;;;5048636;28;4529;-60
2023/04/29 09:19:34;;;;;;;;;;;;;;;;;;5048299;28;4484;-63
2023/04/29 09:21:59;;;;;;;;;;;;;;;;;;5046791;28;4476;-58
2023/04/29 09:24:26;;;;;;;;;;;;;;;;;;5049537;28;1303;-65
2023/04/29 09:26:51;;;;;;;;;;;;;;;;;;5046772;28;4472;-61
2023/04/29 09:29:17;;;;;;;;;;;;;;;;;;5061310;28;4543;-61
2023/04/29 09:31:42;;;;;;;;;;;;;;;;;;5044551;28;4525;-60
2023/04/29 09:34:08;;;;;;;;;;;;;;;;;;5032149;28;4516;-67
2023/04/29 09:36:40;;;;;;;;;;;;;;;;;;5046369;28;1140;-64
2023/04/29 09:39:11;;;;;;;;;;;;;;;;;;5024745;28;4420;-64
2023/04/29 09:41:40;;;;;;;;;;;;;;;;;;5004075;28;4717;-65
2023/04/29 09:44:06;;;;;;;;;;;;;;;;;;5028222;28;4787;-59
2023/04/29 09:46:32;;;;;;;;;;;;;;;;;;5026276;28;4514;-59
2023/04/29 09:48:57;;;;;;;;;;;;;;;;;;5021830;28;4680;-60
2023/04/29 09:51:23;;;;;;;;;;;;;;;;;;5025640;28;2044;-59
2023/04/29 09:53:48;;;;;;;;;;;;;;;;;;5022097;28;4413;-58
2023/04/29 09:56:14;;;;;;;;;;;;;;;;;;5031230;28;4559;-62
2023/04/29 09:58:39;;;;;;;;;;;;;;;;;;5037725;28;5075;-59
2023/04/29 10:01:05;;;;;;;;;;;;;;;;;;5025617;28;5044;-63
2023/04/29 10:03:32;;;;;;;;;;;;;;;;;;5019511;28;1971;-59
2023/04/29 10:05:57;;;;;;;;;;;;;;;;;;5017847;28;4542;-59
2023/04/29 10:08:22;;;;;;;;;;;;;;;;;;5002206;28;6396;-59
2023/04/29 10:10:48;;;;;;;;;;;;;;;;;;5022192;28;4690;-59
2023/04/29 10:13:14;;;;;;;;;;;;;;;;;;5024757;28;4917;-61
2023/04/29 10:15:47;;;;;;;;;;;;;;;;;;5014278;28;5172;-60
2023/04/29 10:18:24;;;;;;;;;;;;;;;;;;5018744;28;1597;-59
2023/04/29 10:20:49;;;;;;;;;;;;;;;;;;5043208;28;5502;-60
2023/04/29 10:23:14;;;;;;;;;;;;;;;;;;5033125;28;4633;-60
2023/04/29 10:25:43;;;;;;;;;;;;;;;;;;5030552;28;4580;-61
2023/04/29 10:28:08;;;;;;;;;;;;;;;;;;5021221;28;5043;-63
2023/04/29 10:30:33;;;;;;;;;;;;;;;;;;5025133;28;1886;-60
2023/04/29 10:32:59;;;;;;;;;;;;;;;;;;5030107;28;4892;-61
2023/04/29 10:35:24;;;;;;;;;;;;;;;;;;5029844;28;4463;-61
2023/04/29 10:37:50;;;;;;;;;;;;;;;;;;5038212;28;4550;-62
2023/04/29 10:40:35;;;;;;;;;;;;;;;;;;5020922;28;4648;-63
2023/04/29 10:43:00;;;;;;;;;;;;;;;;;;5024669;28;4692;-61
2023/04/29 10:45:34;;;;;;;;;;;;;;;;;;5045671;28;1860;-63
2023/04/29 10:48:07;;;;;;;;;;;;;;;;;;5024231;28;4384;-61
2023/04/29 10:50:35;;;;;;;;;;;;;;;;;;5023806;28;4457;-63
2023/04/29 10:53:00;;;;;;;;;;;;;;;;;;5029498;28;5005;-59
2023/04/29 10:55:26;;;;;;;;;;;;;;;;;;5030332;28;5059;-62
2023/04/29 10:57:57;;;;;;;;;;;;;;;;;;5055287;28;5719;-56
2023/04/29 11:00:25;;;;;;;;;;;;;;;;;;5026138;28;1843;-61
2023/04/29 11:02:50;;;;;;;;;;;;;;;;;;5027323;28;4636;-60
2023/04/29 11:05:17;;;;;;;;;;;;;;;;;;5041230;28;4635;-60
2023/04/29 11:07:43;;;;;;;;;;;;;;;;;;5034101;28;4647;-59
2023/04/29 11:10:08;;;;;;;;;;;;;;;;;;5026987;28;6586;-58
2023/04/29 11:12:33;;;;;;;;;;;;;;;;;;5043880;28;1511;-58
2023/04/29 11:15:02;;;;;;;;;;;;;;;;;;5026372;28;5002;-55
2023/04/29 11:17:33;;;;;;;;;;;;;;;;;;5027865;28;4462;-59
2023/04/29 11:19:58;;;;;;;;;;;;;;;;;;5026242;28;4637;-58
2023/04/29 11:22:25;;;;;;;;;;;;;;;;;;5038389;28;4698;-62
2023/04/29 11:24:51;;;;;;;;;;;;;;;;;;5023945;28;4877;-63
2023/04/29 11:27:16;;;;;;;;;;;;;;;;;;5036314;28;1837;-57
2023/04/29 11:29:42;;;;;;;;;;;;;;;;;;5022175;28;4887;-58
2023/04/29 11:32:07;;;;;;;;;;;;;;;;;;5025383;28;4634;-58
2023/04/29 11:34:32;;;;;;;;;;;;;;;;;;5026051;28;4732;-59
2023/04/29 11:36:58;;;;;;;;;;;;;;;;;;5062073;28;4573;-60
2023/04/29 11:39:23;;;;;;;;;;;;;;;;;;5029512;28;1784;-62
2023/04/29 11:41:48;;;;;;;;;;;;;;;;;;5028341;28;4620;-62
2023/04/29 11:44:13;;;;;;;;;;;;;;;;;;5028213;28;4523;-63
2023/04/29 11:46:39;;;;;;;;;;;;;;;;;;5030525;28;4671;-58
2023/04/29 11:49:04;;;;;;;;;;;;;;;;;;5028163;28;4546;-59
2023/04/29 11:51:29;;;;;;;;;;;;;;;;;;5027115;28;1864;-60
2023/04/29 11:53:56;;;;;;;;;;;;;;;;;;5046951;28;4985;-61
2023/04/29 11:56:24;;;;;;;;;;;;;;;;;;5032767;28;4748;-63
2023/04/29 11:58:49;;;;;;;;;;;;;;;;;;5033763;28;4671;-61
2023/04/29 12:01:15;;;;;;;;;;;;;;;;;;5029633;28;4716;-62
2023/04/29 12:03:40;;;;;;;;;;;;;;;;;;5028322;28;5715;-58
2023/04/29 12:06:05;;;;;;;;;;;;;;;;;;5016380;28;1910;-60
2023/04/29 12:08:32;;;;;;;;;;;;;;;;;;5040428;28;6404;-61
2023/04/29 12:10:58;;;;;;;;;;;;;;;;;;5034425;28;5275;-58
2023/04/29 12:13:25;;;;;;;;;;;;;;;;;;5036066;28;4498;-59
2023/04/29 12:15:51;;;;;;;;;;;;;;;;;;5030255;28;4510;-59
2023/04/29 12:18:17;;;;;;;;;;;;;;;;;;5024435;28;1902;-59
2023/04/29 12:20:43;;;;;;;;;;;;;;;;;;5033298;28;4586;-57
2023/04/29 12:23:15;;;;;;;;;;;;;;;;;;5027999;28;4477;-58
2023/04/29 12:25:41;;;;;;;;;;;;;;;;;;5023167;28;4505;-57
2023/04/29 12:28:13;;;;;;;;;;;;;;;;;;5018222;28;4554;-59
2023/04/29 12:30:38;;;;;;;;;;;;;;;;;;5011082;28;4696;-58
2023/04/29 12:33:03;;;;;;;;;;;;;;;;;;5025799;28;1723;-58
2023/04/29 12:35:28;;;;;;;;;;;;;;;;;;5033492;28;4573;-62
2023/04/29 12:37:54;;;;;;;;;;;;;;;;;;5038095;28;4561;-60
2023/04/29 12:40:19;;;;;;;;;;;;;;;;;;5030220;28;4541;-64
2023/04/29 12:42:45;;;;;;;;;;;;;;;;;;5046298;28;5181;-66
2023/04/29 12:45:26;;;;;;;;;;;;;;;;;;5033739;28;1749;-58
2023/04/29 12:47:52;;;;;;;;;;;;;;;;;;5055351;28;4474;-59
2023/04/29 12:50:18;;;;;;;;;;;;;;;;;;5017810;28;4624;-57
2023/04/29 12:52:43;;;;;;;;;;;;;;;;;;5003230;28;4767;-61
2023/04/29 12:55:09;;;;;;;;;;;;;;;;;;5032997;28;5042;-59
2023/04/29 12:57:34;;;;;;;;;;;;;;;;;;5034867;28;1334;-61
2023/04/29 13:00:00;;;;;;;;;;;;;;;;;;5028127;28;4564;-58
2023/04/29 13:02:25;;;;;;;;;;;;;;;;;;5024485;28;4700;-61
2023/04/29 13:04:50;;;;;;;;;;;;;;;;;;5026381;28;5118;-60
2023/04/29 13:07:17;;;;;;;;;;;;;;;;;;5026348;28;5565;-60
2023/04/29 13:09:42;;;;;;;;;;;;;;;;;;5018800;28;6249;-58
2023/04/29 13:12:08;;;;;;;;;;;;;;;;;;5035328;28;2489;-60
2023/04/29 13:14:33;;;;;;;;;;;;;;;;;;5028847;28;4958;-58
2023/04/29 13:16:58;;;;;;;;;;;;;;;;;;5023023;28;4665;-56
2023/04/29 13:19:23;;;;;;;;;;;;;;;;;;5025408;28;4745;-60
2023/04/29 13:21:49;;;;;;;;;;;;;;;;;;5017492;28;5158;-58
2023/04/29 13:24:17;;;;;;;;;;;;;;;;;;5021590;28;2003;-63
2023/04/29 13:26:42;;;;;;;;;;;;;;;;;;5024451;28;4697;-57
2023/04/29 13:29:07;;;;;;;;;;;;;;;;;;5024338;28;4725;-58
2023/04/29 13:31:32;;;;;;;;;;;;;;;;;;5026184;28;4508;-58
2023/04/29 13:33:58;;;;;;;;;;;;;;;;;;5024923;28;4497;-60
2023/04/29 13:36:23;;;;;;;;;;;;;;;;;;5026206;28;1783;-58
2023/04/29 13:38:48;;;;;;;;;;;;;;;;;;5017369;28;5130;-57
2023/04/29 13:41:14;;;;;;;;;;;;;;;;;;5026895;28;4763;-58
2023/04/29 13:43:39;;;;;;;;;;;;;;;;;;5027355;28;5070;-61
2023/04/29 13:46:04;;;;;;;;;;;;;;;;;;5031990;28;5111;-60
2023/04/29 13:48:29;;;;;;;;;;;;;;;;;;5048116;28;1124;-62
2023/04/29 13:50:55;;;;;;;;;;;;;;;;;;5046018;28;4593;-63
2023/04/29 13:53:20;;;;;;;;;;;;;;;;;;5038656;28;4589;-60
2023/04/29 13:55:45;;;;;;;;;;;;;;;;;;5044238;28;4626;-61
2023/04/29 13:58:11;;;;;;;;;;;;;;;;;;5046579;28;4630;-60
2023/04/29 14:00:37;;;;;;;;;;;;;;;;;;5048060;28;4523;-58
2023/04/29 14:03:03;;;;;;;;;;;;;;;;;;5043683;28;1918;-61
2023/04/29 14:05:28;;;;;;;;;;;;;;;;;;5048026;28;4888;-62
2023/04/29 14:07:53;;;;;;;;;;;;;;;;;;5047969;28;4963;-62
2023/04/29 14:10:19;;;;;;;;;;;;;;;;;;5046243;28;6588;-64
2023/04/29 14:12:44;;;;;;;;;;;;;;;;;;5048149;28;4659;-59
2023/04/29 14:15:10;;;;;;;;;;;;;;;;;;5048572;28;1049;-61
2023/04/29 14:17:35;;;;;;;;;;;;;;;;;;5046568;28;4545;-62
2023/04/29 14:20:01;;;;;;;;;;;;;;;;;;5047873;28;4486;-59
2023/04/29 14:22:26;;;;;;;;;;;;;;;;;;5047327;28;4649;-61
2023/04/29 14:24:51;;;;;;;;;;;;;;;;;;5047829;28;4871;-61
2023/04/29 14:27:17;;;;;;;;;;;;;;;;;;5047536;28;1522;-60
2023/04/29 14:29:42;;;;;;;;;;;;;;;;;;5047498;28;4623;-61
2023/04/29 14:32:07;;;;;;;;;;;;;;;;;;5043335;28;4586;-60
2023/04/29 14:34:32;;;;;;;;;;;;;;;;;;5048213;28;4749;-61
2023/04/29 14:36:58;;;;;;;;;;;;;;;;;;5048145;28;4600;-61
2023/04/29 14:39:24;;;;;;;;;;;;;;;;;;5048857;28;1746;-61
2023/04/29 14:41:50;;;;;;;;;;;;;;;;;;5046996;28;5501;-59
2023/04/29 14:44:15;;;;;;;;;;;;;;;;;;5047814;28;4674;-64
2023/04/29 14:46:40;;;;;;;;;;;;;;;;;;5048446;28;4630;-57
2023/04/29 14:49:06;;;;;;;;;;;;;;;;;;5048046;28;4951;-59
2023/04/29 14:51:31;;;;;;;;;;;;;;;;;;5048642;28;1183;-59
2023/04/29 14:53:56;;;;;;;;;;;;;;;;;;5048179;28;4933;-58
2023/04/29 14:56:21;;;;;;;;;;;;;;;;;;5047627;28;4913;-61
2023/04/29 14:58:47;;;;;;;;;;;;;;;;;;5046672;28;4592;-60
2023/04/29 15:01:12;;;;;;;;;;;;;;;;;;5042109;28;4924;-62
2023/04/29 15:03:37;;;;;;;;;;;;;;;;;;5047067;28;4499;-59
2023/04/29 15:06:03;;;;;;;;;;;;;;;;;;5048531;28;1132;-60
2023/04/29 15:08:28;;;;;;;;;;;;;;;;;;5045988;28;6554;-59
2023/04/29 15:10:54;;;;;;;;;;;;;;;;;;5048197;28;4498;-60
2023/04/29 15:13:19;;;;;;;;;;;;;;;;;;5046123;28;4499;-64
2023/04/29 15:15:44;;;;;;;;;;;;;;;;;;5029048;28;4480;-63
2023/04/29 15:18:09;;;;;;;;;;;;;;;;;;5048533;28;1316;-57
2023/04/29 15:20:35;;;;;;;;;;;;;;;;;;5039992;28;4774;-64
2023/04/29 15:23:00;;;;;;;;;;;;;;;;;;5047464;28;4526;-62
2023/04/29 15:25:26;;;;;;;;;;;;;;;;;;5047817;28;4472;-61
2023/04/29 15:27:52;;;;;;;;;;;;;;;;;;5047527;28;5445;-59
2023/04/29 15:30:17;;;;;;;;;;;;;;;;;;5043329;28;1771;-59
2023/04/29 15:32:43;;;;;;;;;;;;;;;;;;5044669;28;4608;-63
2023/04/29 15:35:08;;;;;;;;;;;;;;;;;;5045824;28;4634;-61
2023/04/29 15:37:34;;;;;;;;;;;;;;;;;;5037734;28;4598;-60
2023/04/29 15:39:59;;;;;;;;;;;;;;;;;;5025458;28;4688;-64
2023/04/29 15:42:24;;;;;;;;;;;;;;;;;;5023890;28;1971;-65
2023/04/29 15:44:50;;;;;;;;;;;;;;;;;;5016248;28;4632;-60
2023/04/29 15:47:15;;;;;;;;;;;;;;;;;;5027599;28;4614;-66
2023/04/29 15:49:41;;;;;;;;;;;;;;;;;;5025266;28;4710;-58
2023/04/29 15:52:07;;;;;;;;;;;;;;;;;;5027529;28;4659;-62
2023/04/29 15:54:32;;;;;;;;;;;;;;;;;;5027024;28;1202;-59
2023/04/29 15:56:58;;;;;;;;;;;;;;;;;;5027610;28;4967;-62
2023/04/29 15:59:23;;;;;;;;;;;;;;;;;;5027334;28;4629;-60
2023/04/29 16:01:48;;;;;;;;;;;;;;;;;;5025617;28;4645;-61
2023/04/29 16:04:15;;;;;;;;;;;;;;;;;;5026663;28;4496;-65
2023/04/29 16:06:40;;;;;;;;;;;;;;;;;;5027268;28;4924;-60
2023/04/29 16:09:06;;;;;;;;;;;;;;;;;;5029921;28;6369;-59
2023/04/29 16:11:31;;;;;;;;;;;;;;;;;;5031476;28;5059;-59
2023/04/29 16:13:56;;;;;;;;;;;;;;;;;;5031078;28;4615;-64
2023/04/29 16:16:24;;;;;;;;;;;;;;;;;;5012947;28;4514;-66
2023/04/29 16:18:49;;;;;;;;;;;;;;;;;;5030567;28;4966;-65
2023/04/29 16:21:14;;;;;;;;;;;;;;;;;;5027784;28;1093;-63
2023/04/29 16:23:40;;;;;;;;;;;;;;;;;;5019718;28;4829;-60
2023/04/29 16:26:05;;;;;;;;;;;;;;;;;;5029191;28;4673;-63
2023/04/29 16:28:30;;;;;;;;;;;;;;;;;;5026979;28;4963;-60
2023/04/29 16:30:56;;;;;;;;;;;;;;;;;;5030758;28;5308;-61
2023/04/29 16:33:21;;;;;;;;;;;;;;;;;;5030295;28;1768;-59
2023/04/29 16:35:46;;;;;;;;;;;;;;;;;;5029421;28;4432;-60
2023/04/29 16:38:12;;;;;;;;;;;;;;;;;;5022613;28;4711;-59
2023/04/29 16:40:37;;;;;;;;;;;;;;;;;;5029229;28;4665;-64
2023/04/29 16:43:02;;;;;;;;;;;;;;;;;;5023757;28;5034;-64
2023/04/29 16:45:28;;;;;;;;;;;;;;;;;;5031067;28;1089;-61
2023/04/29 16:47:53;;;;;;;;;;;;;;;;;;5030294;28;5519;-59
2023/04/29 16:50:18;;;;;;;;;;;;;;;;;;5028999;28;4803;-59
2023/04/29 16:52:44;;;;;;;;;;;;;;;;;;5030515;28;5019;-59